createdAt,value
2023-04-29T00:00:14.193Z,4.47
2023-04-29T00:02:41.360Z,4.28
2023-04-29T00:05:08.990Z,5.43
2023-04-29T00:07:36.509Z,3.67
2023-04-29T00:10:03.640Z,4.40
2023-04-29T00:12:31.874Z,3.17
2023-04-29T00:14:59.269Z,4.47
2023-04-29T00:17:26.229Z,4.10
2023-04-29T00:19:53.240Z,4.38
2023-04-29T00:22:22.597Z,4.68
2023-04-29T00:24:49.456Z,4.37
2023-04-29T00:27:17.638Z,4.35
2023-04-29T00:29:45.024Z,4.65
2023-04-29T00:32:12.196Z,4.60
2023-04-29T00:34:39.726Z,6.05
2023-04-29T00:37:07.393Z,4.60
2023-04-29T00:39:34.255Z,3.33
2023-04-29T00:42:03.319Z,3.47
2023-04-29T00:44:30.302Z,4.95
2023-04-29T00:46:57.456Z,4.10
2023-04-29T00:49:24.168Z,4.65
2023-04-29T00:51:53.703Z,4.60
2023-04-29T00:54:21.119Z,4.87
2023-04-29T00:56:49.157Z,4.40
2023-04-29T00:59:17.094Z,4.72
2023-04-29T01:01:44.720Z,4.18
2023-04-29T01:04:12.363Z,4.32
2023-04-29T01:06:54.420Z,5.05
2023-04-29T01:09:32.334Z,5.30
2023-04-29T01:12:15.527Z,5.30
2023-04-29T01:14:48.351Z,4.32
2023-04-29T01:17:19.546Z,4.60
2023-04-29T01:19:53.004Z,4.85
2023-04-29T01:22:22.258Z,5.30
2023-04-29T01:24:49.633Z,4.67
2023-04-29T01:27:29.818Z,4.85
2023-04-29T01:30:15.157Z,4.23
2023-04-29T01:33:00.098Z,4.28
2023-04-29T01:35:34.635Z,5.40
2023-04-29T01:38:37.713Z,4.30
2023-04-29T01:41:13.579Z,4.53
2023-04-29T01:43:41.756Z,4.38
2023-04-29T01:46:21.453Z,4.35
2023-04-29T01:48:54.513Z,4.57
2023-04-29T01:51:21.829Z,5.65
2023-04-29T01:53:49.146Z,4.32
2023-04-29T01:56:16.179Z,4.68
2023-04-29T01:59:01.746Z,4.82
2023-04-29T02:01:43.700Z,4.18
2023-04-29T02:04:10.549Z,4.93
2023-04-29T02:06:38.381Z,4.18
2023-04-29T02:09:05.665Z,4.47
2023-04-29T02:11:34.001Z,5.07
2023-04-29T02:14:01.731Z,4.75
2023-04-29T02:16:28.692Z,4.00
2023-04-29T02:18:58.844Z,5.45
2023-04-29T02:21:27.065Z,4.82
2023-04-29T02:23:54.458Z,3.70
2023-04-29T02:26:24.010Z,4.05
2023-04-29T02:28:52.473Z,5.10
2023-04-29T02:31:21.158Z,5.07
2023-04-29T02:33:48.875Z,4.57
2023-04-29T02:36:15.749Z,4.10
2023-04-29T02:38:43.951Z,4.45
2023-04-29T02:41:10.945Z,4.38
2023-04-29T02:43:37.755Z,3.83
2023-04-29T02:46:05.423Z,4.10
2023-04-29T02:48:32.458Z,3.33
2023-04-29T02:50:59.352Z,4.53
2023-04-29T02:53:26.140Z,4.43
2023-04-29T02:55:53.015Z,3.97
2023-04-29T02:58:19.924Z,3.70
2023-04-29T03:00:46.802Z,3.28
2023-04-29T03:03:13.692Z,4.20
2023-04-29T03:05:40.724Z,4.28
2023-04-29T03:08:07.799Z,4.95
2023-04-29T03:10:34.659Z,3.50
2023-04-29T03:13:02.761Z,4.15
2023-04-29T03:15:31.195Z,2.92
2023-04-29T03:18:01.631Z,3.50
2023-04-29T03:20:29.635Z,3.72
2023-04-29T03:22:56.553Z,3.40
2023-04-29T03:25:23.955Z,3.70
2023-04-29T03:27:51.508Z,4.00
2023-04-29T03:30:18.507Z,3.25
2023-04-29T03:32:50.001Z,4.05
2023-04-29T03:35:16.908Z,2.85
2023-04-29T03:38:04.023Z,4.68
2023-04-29T03:40:33.418Z,3.65
2023-04-29T03:43:01.081Z,4.00
2023-04-29T03:45:28.014Z,3.40
2023-04-29T03:47:55.109Z,4.07
2023-04-29T03:50:23.200Z,3.35
2023-04-29T03:52:50.032Z,3.40
2023-04-29T03:55:18.701Z,3.75
2023-04-29T03:57:45.754Z,3.50
2023-04-29T04:00:14.329Z,3.17
2023-04-29T04:02:45.020Z,4.00
2023-04-29T04:05:12.271Z,3.27
2023-04-29T04:07:42.202Z,2.60
2023-04-29T04:10:28.426Z,3.10
2023-04-29T04:12:56.535Z,3.25
2023-04-29T04:15:23.606Z,4.00
2023-04-29T04:17:50.610Z,3.22
2023-04-29T04:20:17.570Z,2.93
2023-04-29T04:22:45.255Z,2.95
2023-04-29T04:25:19.607Z,4.57
2023-04-29T04:27:46.535Z,2.83
2023-04-29T04:30:22.956Z,3.42
2023-04-29T04:32:49.914Z,3.20
2023-04-29T04:35:17.081Z,3.25
2023-04-29T04:37:44.040Z,2.73
2023-04-29T04:40:11.988Z,3.03
2023-04-29T04:42:56.239Z,3.17
2023-04-29T04:45:23.253Z,3.15
2023-04-29T04:47:51.622Z,3.17
2023-04-29T04:50:22.388Z,2.55
2023-04-29T04:52:51.794Z,2.78
2023-04-29T04:55:38.853Z,3.03
2023-04-29T04:58:06.023Z,2.33
2023-04-29T05:00:32.921Z,2.97
2023-04-29T05:03:00.341Z,3.03
2023-04-29T05:05:27.342Z,3.10
2023-04-29T05:07:54.380Z,3.03
2023-04-29T05:10:27.137Z,2.85
2023-04-29T05:12:57.102Z,3.10
2023-04-29T05:15:24.216Z,2.87
2023-04-29T05:17:53.014Z,3.30
2023-04-29T05:20:21.241Z,3.45
2023-04-29T05:22:48.173Z,2.60
2023-04-29T05:25:15.474Z,3.15
2023-04-29T05:27:42.700Z,2.92
2023-04-29T05:30:14.391Z,2.80
2023-04-29T05:32:41.595Z,3.30
2023-04-29T05:35:12.581Z,2.42
2023-04-29T05:37:39.527Z,3.30
2023-04-29T05:40:18.998Z,3.10
2023-04-29T05:42:47.354Z,3.35
2023-04-29T05:45:14.434Z,3.07
2023-04-29T05:47:41.313Z,3.47
2023-04-29T05:50:08.663Z,3.97
2023-04-29T05:52:35.459Z,2.88
2023-04-29T05:55:02.315Z,3.50
2023-04-29T05:57:29.262Z,3.25
2023-04-29T05:59:56.460Z,2.92
2023-04-29T06:02:23.940Z,3.85
2023-04-29T06:04:51.762Z,3.22
2023-04-29T06:07:42.643Z,3.78
2023-04-29T06:10:29.457Z,3.58
2023-04-29T06:12:56.352Z,3.83
2023-04-29T06:15:23.394Z,2.95
2023-04-29T06:17:50.505Z,2.55
2023-04-29T06:20:18.211Z,3.80
2023-04-29T06:22:45.273Z,2.67
2023-04-29T06:25:12.092Z,4.97
2023-04-29T06:27:46.521Z,5.37
2023-04-29T06:30:14.709Z,2.90
2023-04-29T06:32:41.607Z,4.87
2023-04-29T06:35:09.260Z,2.73
2023-04-29T06:37:56.643Z,3.58
2023-04-29T06:40:52.868Z,4.43
2023-04-29T06:43:38.350Z,3.80
2023-04-29T06:46:23.887Z,3.80
2023-04-29T06:49:10.035Z,3.53
2023-04-29T06:51:40.072Z,3.60
2023-04-29T06:54:06.974Z,5.57
2023-04-29T06:56:33.997Z,6.17
2023-04-29T06:59:00.814Z,4.07
2023-04-29T07:01:27.901Z,7.32
2023-04-29T07:03:54.970Z,8.63
2023-04-29T07:06:22.004Z,7.80
2023-04-29T07:08:48.877Z,9.35
2023-04-29T07:11:15.733Z,7.35
2023-04-29T07:13:42.905Z,10.63
2023-04-29T07:16:18.484Z,7.15
2023-04-29T07:18:45.402Z,6.97
2023-04-29T07:21:12.333Z,5.88
2023-04-29T07:23:39.289Z,6.03
2023-04-29T07:26:24.242Z,7.10
2023-04-29T07:28:51.230Z,6.75
2023-04-29T07:31:18.132Z,5.57
2023-04-29T07:33:46.492Z,4.78
2023-04-29T07:36:13.528Z,4.40
2023-04-29T07:38:40.712Z,6.23
2023-04-29T07:41:07.567Z,6.10
2023-04-29T07:43:34.426Z,7.75
2023-04-29T07:46:01.304Z,4.07
2023-04-29T07:48:28.157Z,5.22
2023-04-29T07:50:54.978Z,6.55
2023-04-29T07:53:22.312Z,5.50
2023-04-29T07:55:50.750Z,4.55
2023-04-29T07:58:18.668Z,5.65
2023-04-29T08:00:47.163Z,4.97
2023-04-29T08:03:14.277Z,3.97
2023-04-29T08:05:42.565Z,4.65
2023-04-29T08:08:09.424Z,4.13
2023-04-29T08:10:40.793Z,6.20
2023-04-29T08:13:09.178Z,4.93
2023-04-29T08:15:35.965Z,3.80
2023-04-29T08:18:03.027Z,3.42
2023-04-29T08:20:30.376Z,4.05
2023-04-29T08:22:59.784Z,4.47
2023-04-29T08:25:27.252Z,5.00
2023-04-29T08:27:54.068Z,4.47
2023-04-29T08:30:21.077Z,4.53
2023-04-29T08:32:48.098Z,3.47
2023-04-29T08:35:15.149Z,4.07
2023-04-29T08:37:42.380Z,4.13
2023-04-29T08:40:09.842Z,3.90
2023-04-29T08:42:37.728Z,5.78
2023-04-29T08:45:05.533Z,4.32
2023-04-29T08:47:34.216Z,4.30
2023-04-29T08:50:05.652Z,4.70
2023-04-29T08:52:33.171Z,5.60
2023-04-29T08:55:02.506Z,4.10
2023-04-29T08:57:39.367Z,3.55
2023-04-29T09:00:10.114Z,3.77
2023-04-29T09:02:53.979Z,3.42
2023-04-29T09:05:21.831Z,4.55
2023-04-29T09:07:50.396Z,3.38
2023-04-29T09:10:18.160Z,4.38
2023-04-29T09:12:46.235Z,3.87
2023-04-29T09:15:13.087Z,4.40
2023-04-29T09:17:48.460Z,5.63
2023-04-29T09:20:21.777Z,5.03
2023-04-29T09:22:57.181Z,4.53
2023-04-29T09:25:24.438Z,4.80
2023-04-29T09:27:51.706Z,3.93
2023-04-29T09:30:19.557Z,3.92
2023-04-29T09:32:47.675Z,3.37
2023-04-29T09:35:25.582Z,2.97
2023-04-29T09:37:56.476Z,2.80
2023-04-29T09:40:33.001Z,4.20
2023-04-29T09:43:02.038Z,4.32
2023-04-29T09:45:48.649Z,4.60
2023-04-29T09:48:16.368Z,4.15
2023-04-29T09:50:45.053Z,5.20
2023-04-29T09:53:27.461Z,3.00
2023-04-29T09:55:54.237Z,4.13
2023-04-29T09:58:36.852Z,3.53
2023-04-29T10:01:04.907Z,3.40
2023-04-29T10:03:37.934Z,3.67
2023-04-29T10:06:07.431Z,3.78
2023-04-29T10:08:34.885Z,3.17
2023-04-29T10:11:04.155Z,4.05
2023-04-29T10:13:31.349Z,3.33
2023-04-29T10:16:08.299Z,4.13
2023-04-29T10:18:39.613Z,3.30
2023-04-29T10:21:09.504Z,3.15
2023-04-29T10:23:37.679Z,2.80
2023-04-29T10:26:07.106Z,3.70
2023-04-29T10:28:34.995Z,3.40
2023-04-29T10:31:03.444Z,4.32
2023-04-29T10:33:33.731Z,3.77
2023-04-29T10:36:02.014Z,4.45
2023-04-29T10:38:42.573Z,3.28
2023-04-29T10:41:16.849Z,3.33
2023-04-29T10:43:43.734Z,2.83
2023-04-29T10:46:16.567Z,4.22
2023-04-29T10:48:48.258Z,3.00
2023-04-29T10:51:32.755Z,3.60
2023-04-29T10:54:12.593Z,4.40
2023-04-29T10:56:50.821Z,3.67
2023-04-29T10:59:33.320Z,3.63
2023-04-29T11:02:00.340Z,2.85
2023-04-29T11:04:27.369Z,3.53
2023-04-29T11:06:57.415Z,3.92
2023-04-29T11:09:24.381Z,2.80
2023-04-29T11:12:18.908Z,3.45
2023-04-29T11:14:52.324Z,3.10
2023-04-29T11:17:20.911Z,3.08
2023-04-29T11:19:50.405Z,3.08
2023-04-29T11:22:23.351Z,3.15
2023-04-29T11:24:56.326Z,2.67
2023-04-29T11:27:25.730Z,3.17
2023-04-29T11:29:58.127Z,2.47
2023-04-29T11:32:29.746Z,3.30
2023-04-29T11:35:14.863Z,4.53
2023-04-29T11:37:43.687Z,5.75
2023-04-29T11:40:12.149Z,4.63
2023-04-29T11:42:49.757Z,4.95
2023-04-29T11:45:20.446Z,4.60
2023-04-29T11:47:48.756Z,6.00
2023-04-29T11:50:19.141Z,4.45
2023-04-29T11:52:49.869Z,4.78
2023-04-29T11:55:16.918Z,4.82
2023-04-29T11:57:43.808Z,5.17
2023-04-29T12:00:14.557Z,4.32
2023-04-29T12:02:46.235Z,4.03
2023-04-29T12:05:13.854Z,4.25
2023-04-29T12:07:40.967Z,3.45
2023-04-29T12:10:11.748Z,4.32
2023-04-29T12:12:43.692Z,4.47
2023-04-29T12:15:11.152Z,3.73
2023-04-29T12:17:39.407Z,4.45
2023-04-29T12:20:09.841Z,5.43
2023-04-29T12:22:36.903Z,5.72
2023-04-29T12:25:07.759Z,4.10
2023-04-29T12:27:36.343Z,4.28
2023-04-29T12:30:08.150Z,4.55
2023-04-29T12:32:35.459Z,5.65
2023-04-29T12:35:02.283Z,4.88
2023-04-29T12:37:29.171Z,4.05
2023-04-29T12:39:56.109Z,3.67
2023-04-29T12:42:22.985Z,4.88
2023-04-29T12:44:49.976Z,3.80
2023-04-29T12:47:17.463Z,4.87
2023-04-29T12:49:49.090Z,4.77
2023-04-29T12:52:15.961Z,4.20
2023-04-29T12:54:43.839Z,5.20
2023-04-29T12:57:11.875Z,4.13
2023-04-29T12:59:40.839Z,3.92
2023-04-29T13:02:08.377Z,4.13
2023-04-29T13:04:35.803Z,4.82
2023-04-29T13:07:03.982Z,4.10
2023-04-29T13:09:31.397Z,4.20
2023-04-29T13:11:59.614Z,6.32
2023-04-29T13:14:26.745Z,4.38
2023-04-29T13:16:53.811Z,3.50
2023-04-29T13:19:34.811Z,3.38
2023-04-29T13:22:07.524Z,4.05
2023-04-29T13:24:35.775Z,4.30
2023-04-29T13:27:05.886Z,3.55
2023-04-29T13:29:32.790Z,3.83
2023-04-29T13:31:59.648Z,4.72
2023-04-29T13:34:26.578Z,3.90
2023-04-29T13:36:53.487Z,3.85
2023-04-29T13:39:22.910Z,3.50
2023-04-29T13:41:49.997Z,3.47
2023-04-29T13:44:27.335Z,2.83
2023-04-29T13:47:01.544Z,3.15
2023-04-29T13:50:03.384Z,3.75
2023-04-29T13:53:09.980Z,3.75
2023-04-29T14:00:14.713Z,3.28
2023-04-29T14:05:25.340Z,2.88
2023-04-29T14:07:52.403Z,4.07
2023-04-29T14:10:19.294Z,3.72
2023-04-29T14:12:46.082Z,3.75
2023-04-29T14:15:12.877Z,2.83
2023-04-29T14:17:39.664Z,3.17
2023-04-29T14:20:07.426Z,5.10
2023-04-29T14:22:34.210Z,3.00
2023-04-29T14:25:00.969Z,2.50
2023-04-29T14:27:27.731Z,4.05
2023-04-29T14:29:54.528Z,2.75
2023-04-29T14:32:21.333Z,4.35
2023-04-29T14:34:48.143Z,2.83
2023-04-29T14:37:15.015Z,3.15
2023-04-29T14:39:41.844Z,3.42
2023-04-29T14:42:08.683Z,2.80
2023-04-29T14:44:35.787Z,5.15
2023-04-29T14:47:02.680Z,3.25
2023-04-29T14:49:31.544Z,3.17
2023-04-29T14:51:58.818Z,3.72
2023-04-29T14:54:27.043Z,4.07
2023-04-29T14:56:54.005Z,2.70
2023-04-29T14:59:21.025Z,4.63
2023-04-29T15:01:47.950Z,2.88
2023-04-29T15:04:14.813Z,3.57
2023-04-29T15:06:41.706Z,3.00
2023-04-29T15:09:08.543Z,3.53
2023-04-29T15:11:35.496Z,3.83
2023-04-29T15:14:02.223Z,2.80
2023-04-29T15:16:30.316Z,4.85
2023-04-29T15:18:57.235Z,3.53
2023-04-29T15:21:24.229Z,3.72
2023-04-29T15:23:51.184Z,4.10
2023-04-29T15:26:18.480Z,3.08
2023-04-29T15:28:45.797Z,3.63
2023-04-29T15:31:13.458Z,4.27
2023-04-29T15:33:40.251Z,3.10
2023-04-29T15:36:07.768Z,3.10
2023-04-29T15:38:34.671Z,3.95
2023-04-29T15:41:02.716Z,3.67
2023-04-29T15:43:30.552Z,3.50
2023-04-29T15:45:59.289Z,4.35
2023-04-29T15:48:26.225Z,4.00
2023-04-29T15:50:53.597Z,3.67
2023-04-29T15:53:20.532Z,2.97
2023-04-29T15:55:47.363Z,3.80
2023-04-29T15:58:14.092Z,3.20
2023-04-29T16:00:41.040Z,4.37
2023-04-29T16:03:07.906Z,3.63
2023-04-29T16:05:34.753Z,4.03
2023-04-29T16:08:01.540Z,3.17
2023-04-29T16:10:28.381Z,3.78
2023-04-29T16:12:55.265Z,3.47
2023-04-29T16:15:22.404Z,4.32
2023-04-29T16:17:49.404Z,3.80
2023-04-29T16:20:17.368Z,4.15
2023-04-29T16:22:44.233Z,3.78
2023-04-29T16:25:11.584Z,3.67
2023-04-29T16:27:38.435Z,3.40
2023-04-29T16:30:05.788Z,3.85
2023-04-29T16:32:33.392Z,3.37
2023-04-29T16:35:01.545Z,4.63
2023-04-29T16:37:29.148Z,3.10
2023-04-29T16:39:55.983Z,3.67
2023-04-29T16:42:22.780Z,3.43
2023-04-29T16:44:49.892Z,3.60
2023-04-29T16:47:19.059Z,3.95
2023-04-29T16:49:46.937Z,3.90
2023-04-29T16:52:14.423Z,4.35
2023-04-29T16:54:41.590Z,3.28
2023-04-29T16:57:08.524Z,3.50
2023-04-29T16:59:35.474Z,3.40
2023-04-29T17:02:02.975Z,3.05
2023-04-29T17:04:33.220Z,3.25
2023-04-29T17:07:01.370Z,4.20
2023-04-29T17:09:28.293Z,3.10
2023-04-29T17:11:55.239Z,2.97
2023-04-29T17:14:22.528Z,3.40
2023-04-29T17:16:49.337Z,3.13
2023-04-29T17:19:16.534Z,3.17
2023-04-29T17:21:43.380Z,2.90
2023-04-29T17:24:10.216Z,4.97
2023-04-29T17:26:37.016Z,3.20
2023-04-29T17:29:04.177Z,3.33
2023-04-29T17:31:44.989Z,3.25
2023-04-29T17:34:18.611Z,2.60
2023-04-29T17:36:47.013Z,3.40
2023-04-29T17:39:13.956Z,2.50
2023-04-29T17:41:41.195Z,3.47
2023-04-29T17:44:08.664Z,3.47
2023-04-29T17:46:36.455Z,2.15
2023-04-29T17:49:04.011Z,4.10
2023-04-29T17:51:34.305Z,3.10
2023-04-29T17:54:02.033Z,4.18
2023-04-29T17:56:29.042Z,3.00
2023-04-29T17:58:55.832Z,3.03
2023-04-29T18:01:22.940Z,2.95
2023-04-29T18:03:51.227Z,3.10
2023-04-29T18:06:18.230Z,3.03
2023-04-29T18:08:45.643Z,4.38
2023-04-29T18:11:12.906Z,3.85
2023-04-29T18:13:41.270Z,2.93
2023-04-29T18:16:09.037Z,3.40
2023-04-29T18:18:37.258Z,2.90
2023-04-29T18:21:04.402Z,4.85
2023-04-29T18:23:31.579Z,2.90
2023-04-29T18:25:58.554Z,3.53
2023-04-29T18:28:25.843Z,3.40
2023-04-29T18:30:52.882Z,2.90
2023-04-29T18:33:19.850Z,3.10
2023-04-29T18:35:46.831Z,3.15
2023-04-29T18:38:17.060Z,3.25
2023-04-29T18:40:44.453Z,3.92
2023-04-29T18:43:12.040Z,3.20
2023-04-29T18:45:38.928Z,2.95
2023-04-29T18:48:06.852Z,2.63
2023-04-29T18:50:34.063Z,3.03
2023-04-29T18:53:01.147Z,2.78
2023-04-29T18:55:28.109Z,2.40
2023-04-29T18:57:54.953Z,3.28
2023-04-29T19:00:21.846Z,3.20
2023-04-29T19:02:49.000Z,3.00
2023-04-29T19:05:16.122Z,2.92
2023-04-29T19:07:43.200Z,2.67
2023-04-29T19:10:10.557Z,2.53
2023-04-29T19:12:37.764Z,2.97
2023-04-29T19:15:05.039Z,3.20
2023-04-29T19:17:31.933Z,3.10
2023-04-29T19:19:58.727Z,2.80
2023-04-29T19:22:27.694Z,2.50
2023-04-29T19:24:54.627Z,2.80
2023-04-29T19:27:21.535Z,2.97
2023-04-29T19:29:48.380Z,2.93
2023-04-29T19:32:15.188Z,2.55
2023-04-29T19:34:42.105Z,2.35
2023-04-29T19:37:09.006Z,2.78
2023-04-29T19:39:35.898Z,3.10
2023-04-29T19:42:03.950Z,2.30
2023-04-29T19:44:30.861Z,2.45
2023-04-29T19:46:57.968Z,2.42
2023-04-29T19:49:24.849Z,2.40
2023-04-29T19:51:51.930Z,2.30
2023-04-29T19:54:19.168Z,2.83
2023-04-29T19:56:46.036Z,2.75
2023-04-29T19:59:13.271Z,2.90
2023-04-29T20:01:40.917Z,3.17
2023-04-29T20:04:07.809Z,2.25
2023-04-29T20:06:37.301Z,2.40
2023-04-29T20:09:04.539Z,2.70
2023-04-29T20:11:31.299Z,2.15
2023-04-29T20:13:58.652Z,3.30
2023-04-29T20:16:27.729Z,2.17
2023-04-29T20:18:54.681Z,2.70
2023-04-29T20:21:21.539Z,3.50
2023-04-29T20:23:49.041Z,3.03
2023-04-29T20:26:17.781Z,3.10
2023-04-29T20:28:45.942Z,2.70
2023-04-29T20:31:12.897Z,2.83
2023-04-29T20:33:39.833Z,2.13
2023-04-29T20:36:07.390Z,2.30
2023-04-29T20:38:37.824Z,2.88
2023-04-29T20:41:08.027Z,2.10
2023-04-29T20:43:35.075Z,2.33
2023-04-29T20:46:03.008Z,3.10
2023-04-29T20:48:30.090Z,3.40
2023-04-29T20:50:56.891Z,2.72
2023-04-29T20:53:23.712Z,2.47
2023-04-29T20:55:50.469Z,3.10
2023-04-29T20:58:17.418Z,2.97
2023-04-29T21:00:44.308Z,3.40
2023-04-29T21:03:11.198Z,2.35
2023-04-29T21:05:37.917Z,2.65
2023-04-29T21:08:05.910Z,2.42
2023-04-29T21:10:32.727Z,4.57
2023-04-29T21:12:59.582Z,2.75
2023-04-29T21:15:26.936Z,3.42
2023-04-29T21:17:53.950Z,3.88
2023-04-29T21:20:21.320Z,4.40
2023-04-29T21:22:48.163Z,2.10
2023-04-29T21:25:15.107Z,3.13
2023-04-29T21:27:41.934Z,2.67
2023-04-29T21:30:09.086Z,2.43
2023-04-29T21:32:36.031Z,2.92
2023-04-29T21:35:03.252Z,2.73
2023-04-29T21:37:30.745Z,3.17
2023-04-29T21:40:00.052Z,3.75
2023-04-29T21:42:26.968Z,3.33
2023-04-29T21:44:59.296Z,2.72
2023-04-29T21:47:27.322Z,2.92
2023-04-29T21:49:54.518Z,2.55
2023-04-29T21:52:21.730Z,3.67
2023-04-29T21:54:48.523Z,4.70
2023-04-29T21:57:15.287Z,2.05
2023-04-29T21:59:42.163Z,3.30
2023-04-29T22:02:21.825Z,3.05
2023-04-29T22:04:53.502Z,3.17
2023-04-29T22:07:22.319Z,2.88
2023-04-29T22:09:52.378Z,2.83
2023-04-29T22:12:19.700Z,3.08
2023-04-29T22:14:46.665Z,3.17
2023-04-29T22:17:14.153Z,2.25
2023-04-29T22:19:41.171Z,2.72
2023-04-29T22:22:08.796Z,2.17
2023-04-29T22:24:35.770Z,2.03
2023-04-29T22:27:03.750Z,2.70
2023-04-29T22:29:30.633Z,2.40
2023-04-29T22:31:57.477Z,3.10
2023-04-29T22:34:24.514Z,3.17
2023-04-29T22:36:51.281Z,2.10
2023-04-29T22:39:18.622Z,2.47
2023-04-29T22:41:45.571Z,2.85
2023-04-29T22:44:12.574Z,3.50
2023-04-29T22:46:39.370Z,2.40
2023-04-29T22:49:06.094Z,2.00
2023-04-29T22:51:32.954Z,3.22
2023-04-29T22:53:59.763Z,2.37
2023-04-29T22:56:28.678Z,3.47
2023-04-29T22:58:55.893Z,2.42
2023-04-29T23:01:22.924Z,2.45
2023-04-29T23:03:49.839Z,3.63
2023-04-29T23:06:16.819Z,5.68
2023-04-29T23:08:44.545Z,2.15
2023-04-29T23:11:11.927Z,2.63
2023-04-29T23:13:39.130Z,3.10
2023-04-29T23:16:07.117Z,2.80
2023-04-29T23:18:35.417Z,2.00
2023-04-29T23:21:02.249Z,2.42
2023-04-29T23:23:29.390Z,2.43
2023-04-29T23:25:56.321Z,2.40
2023-04-29T23:28:24.552Z,2.63
2023-04-29T23:30:51.442Z,3.00
2023-04-29T23:33:18.251Z,2.63
2023-04-29T23:35:50.307Z,2.63
2023-04-29T23:38:18.582Z,2.78
2023-04-29T23:40:46.519Z,2.65
2023-04-29T23:43:14.908Z,2.67
2023-04-29T23:45:45.064Z,2.22
2023-04-29T23:48:12.275Z,2.60
2023-04-29T23:50:39.162Z,2.53
2023-04-29T23:53:05.983Z,2.50
2023-04-29T23:55:32.991Z,2.20
2023-04-29T23:57:59.941Z,2.13
